To NAV CANADA Home Page Login to a new session Search on AWWS site Feedback and Comments Disclaimer Vers la page française équivalente Tips FAQ What's new on the site To the Forecasts and Observations / NOTAM section To "File a Flight Plan" website Publications and other links Update of the User's profile FIC Telephone Numbers My Weather Data Folder Route Weather Data Regional Weather Data Local Weather Data To the Forecasts and Observations / NOTAM section
Request Generated 04/24/2014 at 17:59:51 UTC . Weather information available at that time is displayed.

METAR/TAF

TORONTO/BILLY BISHOP TORONTO CITY AIRPORT/ON    (show WxCam)

METAR CYTZ 241700Z AUTO 18012KT 9SM CLR 07/M03 A3014 RMK SLP210=
METAR CYTZ 241600Z AUTO 17010KT 9SM CLR 08/M02 A3016 RMK SLP214=
METAR CYTZ 241500Z AUTO 33009G17KT 290V020 9SM FEW210 10/M11 A3016
RMK SLP215=

TAF CYTZ 241339Z 2414/2514 33007KT P6SM FEW260
BECMG 2416/2418 17008KT SCT200
FM242300 35005KT P6SM BKN120
BECMG 2502/2504 06010KT
FM251100 08015G25KT P6SM BKN060 OVC120
RMK FCST BASED ON AUTO OBS. NXT FCST BY 242000Z=
Your time UTC time
Weather data provided by Environment Canada and NAV CANADA